createdAt,value
2017-11-07T00:00:18.706Z,0.4
2017-11-07T00:01:20.308Z,0.3
2017-11-07T00:02:21.905Z,0.8
2017-11-07T00:03:23.511Z,0.8
2017-11-07T00:04:25.108Z,0.8
2017-11-07T00:05:26.715Z,0.4
2017-11-07T00:06:28.314Z,0.3
2017-11-07T00:07:29.940Z,0.7
2017-11-07T00:08:31.519Z,0.4
2017-11-07T00:09:33.124Z,0.5
2017-11-07T00:10:34.722Z,0.8
2017-11-07T00:11:36.325Z,0.8
2017-11-07T00:12:37.923Z,1.0
2017-11-07T00:13:39.529Z,0.8
2017-11-07T00:14:41.132Z,0.8
2017-11-07T00:15:42.739Z,1.3
2017-11-07T00:16:44.335Z,1.4
2017-11-07T00:17:45.934Z,1.3
2017-11-07T00:18:47.541Z,1.6
2017-11-07T00:19:49.138Z,1.3
2017-11-07T00:20:50.744Z,1.8
2017-11-07T00:21:52.344Z,1.6
2017-11-07T00:22:53.946Z,1.8
2017-11-07T00:23:55.545Z,2.2
2017-11-07T00:24:57.149Z,2.0
2017-11-07T00:25:58.744Z,1.2
2017-11-07T00:27:00.353Z,1.2
2017-11-07T00:28:01.951Z,1.3
2017-11-07T00:29:03.561Z,1.3
2017-11-07T00:30:05.154Z,1.4
2017-11-07T00:31:06.768Z,1.4
2017-11-07T00:32:08.359Z,1.3
2017-11-07T00:33:09.962Z,1.2
2017-11-07T00:34:11.566Z,0.9
2017-11-07T00:35:13.166Z,1.3
2017-11-07T00:36:14.768Z,1.2
2017-11-07T00:37:16.370Z,1.4
2017-11-07T00:38:17.974Z,1.2
2017-11-07T00:39:19.571Z,1.2
2017-11-07T00:40:21.169Z,1.3
2017-11-07T00:41:22.778Z,1.2
2017-11-07T00:42:24.381Z,1.4
2017-11-07T00:43:25.980Z,1.6
2017-11-07T00:44:27.578Z,1.4
2017-11-07T00:45:29.186Z,1.3
2017-11-07T00:46:30.788Z,1.5
2017-11-07T00:47:32.389Z,1.9
2017-11-07T00:48:33.988Z,1.6
2017-11-07T00:49:35.594Z,1.8
2017-11-07T00:50:37.192Z,2.0
2017-11-07T00:51:38.795Z,2.3
2017-11-07T00:52:40.393Z,1.7
2017-11-07T00:53:41.996Z,1.6
2017-11-07T00:54:43.594Z,1.6
2017-11-07T00:55:45.200Z,1.6
2017-11-07T00:56:46.799Z,1.3
2017-11-07T00:57:48.406Z,1.3
2017-11-07T00:58:50.004Z,1.7
2017-11-07T00:59:51.602Z,1.6
2017-11-07T01:00:53.202Z,1.6
2017-11-07T01:01:54.802Z,1.2
2017-11-07T01:02:56.409Z,1.3
2017-11-07T01:03:58.006Z,1.3
2017-11-07T01:04:59.609Z,1.8
2017-11-07T01:06:01.211Z,1.8
2017-11-07T01:07:02.811Z,1.9
2017-11-07T01:08:04.416Z,1.9
2017-11-07T01:09:06.019Z,2.0
2017-11-07T01:10:07.619Z,1.7
2017-11-07T01:11:09.221Z,1.7
2017-11-07T01:12:10.827Z,2.3
2017-11-07T01:13:12.428Z,2.0
2017-11-07T01:14:14.025Z,2.5
2017-11-07T01:15:15.625Z,2.2
2017-11-07T01:16:17.225Z,2.3
2017-11-07T01:17:18.829Z,2.6
2017-11-07T01:18:20.439Z,2.5
2017-11-07T01:19:22.039Z,2.8
2017-11-07T01:20:23.635Z,2.8
2017-11-07T01:21:25.241Z,2.8
2017-11-07T01:22:26.837Z,2.6
2017-11-07T01:23:28.439Z,2.6
2017-11-07T01:24:30.045Z,2.7
2017-11-07T01:25:31.651Z,3.2
2017-11-07T01:26:33.250Z,2.9
2017-11-07T01:27:34.849Z,3.2
2017-11-07T01:28:36.457Z,3.2
2017-11-07T01:29:38.061Z,3.0
2017-11-07T01:30:39.657Z,3.2
2017-11-07T01:31:41.256Z,3.5
2017-11-07T01:32:42.856Z,3.5
2017-11-07T01:33:44.458Z,4.0
2017-11-07T01:34:46.063Z,3.9
2017-11-07T01:35:47.666Z,3.8
2017-11-07T01:36:49.266Z,3.9
2017-11-07T01:37:50.869Z,4.4
2017-11-07T01:38:52.474Z,4.2
2017-11-07T01:39:54.079Z,4.2
2017-11-07T01:40:55.680Z,4.4
2017-11-07T01:41:57.284Z,4.5
2017-11-07T01:42:58.880Z,4.5
2017-11-07T01:44:00.486Z,4.7
2017-11-07T01:45:02.083Z,4.9
2017-11-07T01:46:03.691Z,4.9
2017-11-07T01:47:05.291Z,5.1
2017-11-07T01:48:06.899Z,4.9
2017-11-07T01:49:08.502Z,5.2
2017-11-07T01:50:10.099Z,5.7
2017-11-07T01:51:11.706Z,5.9
2017-11-07T01:52:13.303Z,5.9
2017-11-07T01:53:14.912Z,6.3
2017-11-07T01:54:16.518Z,6.1
2017-11-07T01:55:18.125Z,6.0
2017-11-07T01:56:19.724Z,6.2
2017-11-07T01:57:21.327Z,6.5
2017-11-07T01:58:22.927Z,6.5
2017-11-07T01:59:24.532Z,6.6
2017-11-07T02:00:26.132Z,7.3
2017-11-07T02:01:27.737Z,7.0
2017-11-07T02:02:29.335Z,7.2
2017-11-07T02:03:30.943Z,7.3
2017-11-07T02:04:32.541Z,7.3
2017-11-07T02:05:34.150Z,7.1
2017-11-07T02:06:35.755Z,7.3
2017-11-07T02:07:37.358Z,7.3
2017-11-07T02:08:38.956Z,7.7
2017-11-07T02:09:40.561Z,7.7
2017-11-07T02:10:42.165Z,7.9
2017-11-07T02:11:43.763Z,7.7
2017-11-07T02:12:45.363Z,7.7
2017-11-07T02:13:46.970Z,7.8
2017-11-07T02:14:48.574Z,8.1
2017-11-07T02:15:50.171Z,7.7
2017-11-07T02:16:51.774Z,7.6
2017-11-07T02:17:53.381Z,7.7
2017-11-07T02:18:54.983Z,7.7
2017-11-07T02:19:56.589Z,7.6
2017-11-07T02:20:58.188Z,7.5
2017-11-07T02:21:59.786Z,7.3
2017-11-07T02:23:01.387Z,7.1
2017-11-07T02:24:02.992Z,7.1
2017-11-07T02:25:04.603Z,7.1
2017-11-07T02:26:06.199Z,7.2
2017-11-07T02:27:07.800Z,7.0
2017-11-07T02:28:09.406Z,6.4
2017-11-07T02:29:11.005Z,6.4
2017-11-07T02:30:12.613Z,6.4
2017-11-07T02:31:14.214Z,6.3
2017-11-07T02:32:15.812Z,6.4
2017-11-07T02:33:17.411Z,6.0
2017-11-07T02:34:19.024Z,5.8
2017-11-07T02:35:20.625Z,5.8
2017-11-07T02:36:22.226Z,6.1
2017-11-07T02:37:23.833Z,5.9
2017-11-07T02:38:25.438Z,5.4
2017-11-07T02:39:27.037Z,5.5
2017-11-07T02:40:28.637Z,5.2
2017-11-07T02:41:30.237Z,5.1
2017-11-07T02:42:31.842Z,5.1
2017-11-07T02:43:33.451Z,4.7
2017-11-07T02:44:35.053Z,4.6
2017-11-07T02:45:36.650Z,4.7
2017-11-07T02:46:38.255Z,4.4
2017-11-07T02:47:39.854Z,4.3
2017-11-07T02:48:41.460Z,3.8
2017-11-07T02:49:43.057Z,3.8
2017-11-07T02:50:44.665Z,4.2
2017-11-07T02:51:46.268Z,4.2
2017-11-07T02:52:47.881Z,4.3
2017-11-07T02:53:49.476Z,3.9
2017-11-07T02:54:51.079Z,3.8
2017-11-07T02:55:52.679Z,3.6
2017-11-07T02:56:54.287Z,3.4
2017-11-07T02:57:55.887Z,3.2
2017-11-07T02:58:57.496Z,3.2
2017-11-07T02:59:59.098Z,3.4
2017-11-07T03:01:00.703Z,3.1
2017-11-07T03:02:02.308Z,3.2
2017-11-07T03:03:03.909Z,3.2
2017-11-07T03:04:05.515Z,2.9
2017-11-07T03:05:07.122Z,2.8
2017-11-07T03:06:08.721Z,3.2
2017-11-07T03:07:10.324Z,2.8
2017-11-07T03:08:11.929Z,3.0
2017-11-07T03:09:13.531Z,2.9
2017-11-07T03:10:15.129Z,3.0
2017-11-07T03:11:16.732Z,3.1
2017-11-07T03:12:18.338Z,2.7
2017-11-07T03:13:19.938Z,2.6
2017-11-07T03:14:21.546Z,2.7
2017-11-07T03:15:23.145Z,2.7
2017-11-07T03:16:24.743Z,2.6
2017-11-07T03:17:26.346Z,2.4
2017-11-07T03:18:27.949Z,1.9
2017-11-07T03:19:29.555Z,2.2
2017-11-07T03:20:31.156Z,2.1
2017-11-07T03:21:32.765Z,2.2
2017-11-07T03:22:34.363Z,1.6
2017-11-07T03:23:35.974Z,1.6
2017-11-07T03:24:37.573Z,1.6
2017-11-07T03:25:39.181Z,1.4
2017-11-07T03:26:40.782Z,1.6
2017-11-07T03:27:42.386Z,1.6
2017-11-07T03:28:43.990Z,1.5
2017-11-07T03:29:45.597Z,1.7
2017-11-07T03:30:47.198Z,1.4
2017-11-07T03:31:48.795Z,1.4
2017-11-07T03:32:50.400Z,1.7
2017-11-07T03:33:52.004Z,1.3
2017-11-07T03:34:53.610Z,1.2
2017-11-07T03:35:55.211Z,1.5
2017-11-07T03:36:56.812Z,0.8
2017-11-07T03:37:58.415Z,0.7
2017-11-07T03:39:00.020Z,0.8
2017-11-07T03:40:01.619Z,0.7
2017-11-07T03:41:03.221Z,0.0
2017-11-07T03:42:04.828Z,0.3
2017-11-07T03:43:06.430Z,0.1
2017-11-07T03:44:08.029Z,0.0
2017-11-07T03:45:09.630Z,0.1
2017-11-07T03:46:11.235Z,0.0
2017-11-07T03:47:12.835Z,0.0
2017-11-07T03:48:14.437Z,0.1
2017-11-07T03:49:16.043Z,0.0
2017-11-07T03:50:17.650Z,0.0
2017-11-07T03:51:19.246Z,0.0
2017-11-07T03:52:20.851Z,0.0
2017-11-07T03:53:22.455Z,0.0
2017-11-07T03:54:24.055Z,0.0
2017-11-07T03:55:25.654Z,0.0
2017-11-07T03:56:27.261Z,0.0
2017-11-07T03:57:28.881Z,0.0
2017-11-07T03:58:30.475Z,0.0
2017-11-07T03:59:32.078Z,0.0
2017-11-07T04:00:33.686Z,0.0
2017-11-07T04:01:35.283Z,0.0
2017-11-07T04:02:36.894Z,0.0
2017-11-07T04:03:38.492Z,0.0
2017-11-07T04:04:40.102Z,0.0
2017-11-07T04:05:41.705Z,0.0
2017-11-07T04:06:43.307Z,0.0
2017-11-07T04:07:44.906Z,0.0
2017-11-07T04:08:46.511Z,0.0
2017-11-07T04:09:48.112Z,0.0
2017-11-07T04:10:49.717Z,0.0
2017-11-07T04:11:51.315Z,0.0
2017-11-07T04:12:52.917Z,0.0
2017-11-07T04:13:54.516Z,0.0
2017-11-07T04:14:56.121Z,0.0
2017-11-07T04:15:57.721Z,0.0
2017-11-07T04:16:59.319Z,0.0
2017-11-07T04:18:00.925Z,0.0
2017-11-07T04:19:02.529Z,0.0
2017-11-07T04:20:04.133Z,0.0
2017-11-07T04:21:05.733Z,0.0
2017-11-07T04:22:07.329Z,0.0
2017-11-07T04:23:08.932Z,0.0
2017-11-07T04:24:10.532Z,0.0
2017-11-07T04:25:12.145Z,0.0
2017-11-07T04:26:13.749Z,0.0
2017-11-07T04:27:15.347Z,0.0
2017-11-07T04:28:16.944Z,0.0
2017-11-07T04:29:18.548Z,0.0
2017-11-07T04:30:20.154Z,0.0
2017-11-07T04:31:21.750Z,0.0
2017-11-07T04:32:23.355Z,0.0
2017-11-07T04:33:24.954Z,0.0
2017-11-07T04:34:26.553Z,0.0
2017-11-07T04:35:28.157Z,0.0
2017-11-07T04:36:29.759Z,0.0
2017-11-07T04:37:31.358Z,0.0
2017-11-07T04:38:32.961Z,0.0
2017-11-07T04:39:34.565Z,0.0
2017-11-07T04:40:36.165Z,0.0
2017-11-07T04:41:37.770Z,0.0
2017-11-07T04:42:39.372Z,0.0
2017-11-07T04:43:40.972Z,0.0
2017-11-07T04:44:42.569Z,0.0
2017-11-07T04:45:44.175Z,0.0
2017-11-07T04:46:45.778Z,0.0
2017-11-07T04:47:47.377Z,0.0
2017-11-07T04:48:48.981Z,0.0
2017-11-07T04:49:50.580Z,0.0
2017-11-07T04:50:52.179Z,0.0
2017-11-07T04:51:53.781Z,0.0
2017-11-07T04:52:55.382Z,0.0
2017-11-07T04:53:56.980Z,0.0
2017-11-07T04:54:58.585Z,0.0
2017-11-07T04:56:00.188Z,0.0
2017-11-07T04:57:01.788Z,0.0
2017-11-07T04:58:03.387Z,0.0
2017-11-07T04:59:05.000Z,0.0
2017-11-07T05:00:06.601Z,0.0
2017-11-07T05:01:08.204Z,0.0
2017-11-07T05:02:09.806Z,0.0
2017-11-07T05:03:11.411Z,0.0
2017-11-07T05:04:13.009Z,0.0
2017-11-07T05:05:14.612Z,0.0
2017-11-07T05:06:16.209Z,0.0
2017-11-07T05:07:17.809Z,0.0
2017-11-07T05:08:19.414Z,0.0
2017-11-07T05:09:21.022Z,0.0
2017-11-07T05:10:22.622Z,0.0
2017-11-07T05:11:24.224Z,0.0
2017-11-07T05:12:25.826Z,0.0
2017-11-07T05:13:27.425Z,0.0
2017-11-07T05:14:29.033Z,0.0
2017-11-07T05:15:30.640Z,0.0
2017-11-07T05:16:32.236Z,0.0
2017-11-07T05:17:33.834Z,0.0
2017-11-07T05:18:35.437Z,0.0
2017-11-07T05:19:37.039Z,0.0
2017-11-07T05:20:38.638Z,0.0
2017-11-07T05:21:40.235Z,0.0
2017-11-07T05:22:41.841Z,0.0
2017-11-07T05:23:43.444Z,0.0
2017-11-07T05:24:45.043Z,0.0
2017-11-07T05:25:46.639Z,0.0
2017-11-07T05:26:48.245Z,0.0
2017-11-07T05:27:49.845Z,0.0
2017-11-07T05:28:51.439Z,0.0
2017-11-07T05:29:53.048Z,0.0
2017-11-07T05:30:54.655Z,0.0
2017-11-07T05:31:56.253Z,0.0
2017-11-07T05:32:57.856Z,0.0
2017-11-07T05:33:59.453Z,0.0
2017-11-07T05:35:01.056Z,0.0
2017-11-07T05:36:02.660Z,0.0
2017-11-07T05:37:04.258Z,0.0
2017-11-07T05:38:05.859Z,0.0
2017-11-07T05:39:07.463Z,0.0
2017-11-07T05:40:09.063Z,0.0
2017-11-07T05:41:10.662Z,0.0
2017-11-07T05:42:12.262Z,0.0
2017-11-07T05:43:13.863Z,0.0
2017-11-07T05:44:15.463Z,0.0
2017-11-07T05:45:17.067Z,0.0
2017-11-07T05:46:18.687Z,0.0
2017-11-07T05:47:20.266Z,0.1
2017-11-07T05:48:21.870Z,0.0
2017-11-07T05:49:23.465Z,0.0
2017-11-07T05:50:25.070Z,0.0
2017-11-07T05:51:26.671Z,0.2
2017-11-07T05:52:28.273Z,0.9
2017-11-07T05:53:29.869Z,0.8
2017-11-07T05:54:31.474Z,2.6
2017-11-07T05:55:33.073Z,2.8
2017-11-07T05:56:34.678Z,4.8
2017-11-07T05:57:36.272Z,4.2
2017-11-07T05:58:37.879Z,3.7
2017-11-07T05:59:39.480Z,3.5
2017-11-07T06:00:41.084Z,3.7
2017-11-07T06:01:42.680Z,4.9
2017-11-07T06:02:44.281Z,4.6
2017-11-07T06:03:45.900Z,3.9
2017-11-07T06:04:47.493Z,4.4
2017-11-07T06:05:49.090Z,7.4
2017-11-07T06:06:50.692Z,5.2
2017-11-07T06:07:52.293Z,5.3
2017-11-07T06:08:53.895Z,4.6
2017-11-07T06:09:55.491Z,4.7
2017-11-07T06:10:57.097Z,5.4
2017-11-07T06:11:58.697Z,5.1
2017-11-07T06:13:00.302Z,5.2
2017-11-07T06:14:01.901Z,5.4
2017-11-07T06:15:03.498Z,5.2
2017-11-07T06:16:05.109Z,5.7
2017-11-07T06:17:06.707Z,6.4
2017-11-07T06:18:08.302Z,7.3
2017-11-07T06:19:09.911Z,7.4
2017-11-07T06:20:11.508Z,7.2
2017-11-07T06:21:13.114Z,7.2
2017-11-07T06:22:14.719Z,7.4
2017-11-07T06:23:16.319Z,6.7
2017-11-07T06:24:17.916Z,4.6
2017-11-07T06:25:19.520Z,2.7
2017-11-07T06:26:21.126Z,1.7
2017-11-07T06:27:22.726Z,0.0
2017-11-07T06:28:24.334Z,0.0
2017-11-07T06:29:25.938Z,0.0
2017-11-07T06:30:27.534Z,0.0
2017-11-07T06:31:29.135Z,0.0
2017-11-07T06:32:30.745Z,0.0
2017-11-07T06:33:32.355Z,0.0
2017-11-07T06:34:33.956Z,0.0
2017-11-07T06:35:35.558Z,0.6
2017-11-07T06:36:37.166Z,1.0
2017-11-07T06:37:38.768Z,1.3
2017-11-07T06:38:40.367Z,1.3
2017-11-07T06:39:41.969Z,1.7
2017-11-07T06:40:43.579Z,2.2
2017-11-07T06:41:45.187Z,2.8
2017-11-07T06:42:46.788Z,3.4
2017-11-07T06:43:48.389Z,3.5
2017-11-07T06:44:49.997Z,4.0
2017-11-07T06:45:51.599Z,4.4
2017-11-07T06:46:53.203Z,6.1
2017-11-07T06:47:54.810Z,6.3
2017-11-07T06:48:56.412Z,6.7
2017-11-07T06:49:58.015Z,7.2
2017-11-07T06:50:59.620Z,7.4
2017-11-07T06:52:01.222Z,6.9
2017-11-07T06:53:02.827Z,7.0
2017-11-07T06:54:04.426Z,7.1
2017-11-07T06:55:06.036Z,7.6
2017-11-07T06:56:07.646Z,8.0
2017-11-07T06:57:09.244Z,6.3
2017-11-07T06:58:10.841Z,6.7
2017-11-07T06:59:12.524Z,6.4
2017-11-07T07:00:14.131Z,6.6
2017-11-07T07:01:15.731Z,6.3
2017-11-07T07:02:17.347Z,6.3
2017-11-07T07:03:18.942Z,6.1
2017-11-07T07:04:20.554Z,6.1
2017-11-07T07:05:22.151Z,6.2
2017-11-07T07:06:23.766Z,6.5
2017-11-07T07:07:25.358Z,7.2
2017-11-07T07:08:26.969Z,7.5
2017-11-07T07:09:28.609Z,8.2
2017-11-07T07:10:30.213Z,8.0
2017-11-07T07:11:31.816Z,7.5
2017-11-07T07:12:33.423Z,6.8
2017-11-07T07:13:35.020Z,5.4
2017-11-07T07:14:36.633Z,4.7
2017-11-07T07:15:38.231Z,5.3
2017-11-07T07:16:39.836Z,4.8
2017-11-07T07:17:41.446Z,4.3
2017-11-07T07:18:43.054Z,4.4
2017-11-07T07:19:44.657Z,4.4
2017-11-07T07:20:46.259Z,5.1
2017-11-07T07:21:47.869Z,4.4
2017-11-07T07:22:49.475Z,4.4
2017-11-07T07:23:43.909Z,4.0
2017-11-07T07:24:45.517Z,3.7
2017-11-07T07:26:37.688Z,4.7
2017-11-07T07:27:39.285Z,6.2
2017-11-07T07:28:40.894Z,8.0
2017-11-07T07:29:42.496Z,8.7
2017-11-07T07:30:44.109Z,8.5
2017-11-07T07:31:45.704Z,9.8
2017-11-07T07:32:47.315Z,10.0
2017-11-07T07:33:48.919Z,10.0
2017-11-07T07:34:50.524Z,10.7
2017-11-07T07:35:52.127Z,10.8
2017-11-07T07:36:53.735Z,10.9
2017-11-07T07:37:55.337Z,11.0
2017-11-07T07:38:56.949Z,11.5
2017-11-07T07:39:58.558Z,12.0
2017-11-07T07:41:00.162Z,12.7
2017-11-07T07:42:01.765Z,13.3
2017-11-07T07:43:03.379Z,13.5
2017-11-07T07:44:04.981Z,13.5
2017-11-07T07:45:06.581Z,13.5
2017-11-07T07:46:08.188Z,14.4
2017-11-07T07:47:09.818Z,16.7
2017-11-07T07:48:11.410Z,16.4
2017-11-07T07:49:13.011Z,16.4
2017-11-07T07:50:14.612Z,16.1
2017-11-07T07:51:16.226Z,16.3
2017-11-07T07:52:17.833Z,16.9
2017-11-07T07:53:19.436Z,17.6
2017-11-07T07:54:21.045Z,19.8
2017-11-07T07:55:22.658Z,22.0
2017-11-07T07:56:24.267Z,22.2
2017-11-07T07:57:25.868Z,25.0
2017-11-07T07:58:27.472Z,25.6
2017-11-07T07:59:29.083Z,28.1
2017-11-07T08:00:30.692Z,44.6
2017-11-07T08:01:32.298Z,44.9
2017-11-07T08:02:33.905Z,50.4
2017-11-07T08:03:35.519Z,70.6
2017-11-07T08:04:37.137Z,71.5
2017-11-07T08:05:38.729Z,68.2
2017-11-07T08:06:40.339Z,87.4
2017-11-07T08:07:41.946Z,86.0
2017-11-07T08:08:43.560Z,85.1
2017-11-07T08:09:45.165Z,88.5
2017-11-07T08:10:46.777Z,89.7
2017-11-07T08:11:48.380Z,85.3
2017-11-07T08:12:49.993Z,92.3
2017-11-07T08:13:51.598Z,95.7
2017-11-07T08:14:53.211Z,88.9
2017-11-07T08:15:54.820Z,90.1
2017-11-07T08:16:56.435Z,87.2
2017-11-07T08:17:58.038Z,93.0
2017-11-07T08:18:59.649Z,91.1
2017-11-07T08:20:01.254Z,91.2
2017-11-07T08:21:02.867Z,85.3
2017-11-07T08:22:04.475Z,85.6
2017-11-07T08:23:06.089Z,86.8
2017-11-07T08:24:07.696Z,82.9
2017-11-07T08:25:09.309Z,82.7
2017-11-07T08:26:10.911Z,81.2
2017-11-07T08:27:12.517Z,85.5
2017-11-07T08:28:14.135Z,86.3
2017-11-07T08:29:15.742Z,83.6
2017-11-07T08:30:17.351Z,83.4
2017-11-07T08:31:18.957Z,85.4
2017-11-07T08:32:20.569Z,85.4
2017-11-07T08:33:22.186Z,86.7
2017-11-07T08:34:23.788Z,85.9
2017-11-07T08:35:25.395Z,86.2
2017-11-07T08:36:27.011Z,85.9
2017-11-07T08:37:28.620Z,88.6
2017-11-07T08:38:30.233Z,91.7
2017-11-07T08:39:31.839Z,96.8
2017-11-07T08:40:33.453Z,100.0
2017-11-07T08:41:35.059Z,100.0
2017-11-07T08:42:36.673Z,100.0
2017-11-07T08:43:38.290Z,100.0
2017-11-07T08:44:39.898Z,100.0
2017-11-07T08:45:41.506Z,100.0
2017-11-07T08:46:43.121Z,100.0
2017-11-07T08:47:44.733Z,100.0
2017-11-07T08:48:46.339Z,100.0
2017-11-07T08:49:47.948Z,100.0
2017-11-07T08:50:49.565Z,100.0
2017-11-07T08:51:51.173Z,100.0
2017-11-07T08:52:52.790Z,100.0
2017-11-07T08:53:54.400Z,100.0
2017-11-07T08:54:56.006Z,100.0
2017-11-07T08:55:57.616Z,100.0
2017-11-07T08:56:59.236Z,100.0
2017-11-07T08:58:00.846Z,100.0
2017-11-07T08:59:02.456Z,100.0
2017-11-07T09:00:04.075Z,100.0
2017-11-07T09:01:05.677Z,100.0
2017-11-07T09:02:07.294Z,100.0
2017-11-07T09:03:08.901Z,100.0
2017-11-07T09:04:10.514Z,100.0
2017-11-07T09:05:12.123Z,100.0
2017-11-07T09:06:13.739Z,100.0
2017-11-07T09:07:15.353Z,100.0
2017-11-07T09:08:16.962Z,100.0
2017-11-07T09:09:18.577Z,100.0
2017-11-07T09:10:20.209Z,100.0
2017-11-07T09:11:21.818Z,100.0
2017-11-07T09:12:23.427Z,100.0
2017-11-07T09:13:25.044Z,100.0
2017-11-07T09:14:26.657Z,100.0
2017-11-07T09:15:28.264Z,100.0
2017-11-07T09:16:29.875Z,100.0
2017-11-07T09:17:31.487Z,99.3
2017-11-07T09:18:33.095Z,98.5
2017-11-07T09:19:34.711Z,100.0
2017-11-07T09:20:36.318Z,100.0
2017-11-07T09:21:37.943Z,100.0
2017-11-07T09:22:39.542Z,100.0
2017-11-07T09:23:41.221Z,100.0
2017-11-07T09:24:42.834Z,100.0
2017-11-07T09:25:44.438Z,100.0
2017-11-07T09:26:46.056Z,100.0
2017-11-07T09:27:47.662Z,100.0
2017-11-07T09:28:49.279Z,100.0
2017-11-07T09:29:50.889Z,100.0
2017-11-07T09:30:52.502Z,100.0
2017-11-07T09:31:54.109Z,100.0
2017-11-07T09:32:55.724Z,100.0
2017-11-07T09:33:57.342Z,100.0
2017-11-07T09:34:58.956Z,100.0
2017-11-07T09:36:00.572Z,100.0
2017-11-07T09:37:02.177Z,100.0
2017-11-07T09:38:03.801Z,100.0
2017-11-07T09:39:05.415Z,100.0
2017-11-07T09:40:07.023Z,100.0
2017-11-07T09:41:08.636Z,100.0
2017-11-07T09:42:10.254Z,100.0
2017-11-07T09:43:11.863Z,100.0
2017-11-07T09:44:13.481Z,100.0
2017-11-07T09:45:15.088Z,100.0
2017-11-07T09:46:16.706Z,100.0
2017-11-07T09:47:18.316Z,100.0
2017-11-07T09:48:19.932Z,100.0
2017-11-07T09:49:21.542Z,100.0
2017-11-07T09:50:23.162Z,100.0
2017-11-07T09:51:24.776Z,100.0
2017-11-07T09:52:26.393Z,100.0
2017-11-07T09:53:28.004Z,100.0
2017-11-07T09:54:29.617Z,100.0
2017-11-07T09:55:31.235Z,100.0
2017-11-07T09:56:32.845Z,100.0
2017-11-07T09:57:34.468Z,100.0
2017-11-07T09:58:36.072Z,100.0
2017-11-07T09:59:37.684Z,100.0
2017-11-07T10:00:39.306Z,100.0
2017-11-07T10:01:40.932Z,100.0
2017-11-07T10:02:42.549Z,100.0
2017-11-07T10:03:44.159Z,100.0
2017-11-07T10:04:45.784Z,100.0
2017-11-07T10:05:47.394Z,100.0
2017-11-07T10:06:49.014Z,100.0
2017-11-07T10:07:50.637Z,100.0
2017-11-07T10:08:52.254Z,100.0
2017-11-07T10:09:53.866Z,100.0
2017-11-07T10:10:55.481Z,100.0
2017-11-07T10:11:57.105Z,100.0
2017-11-07T10:12:58.719Z,94.2
2017-11-07T10:14:00.338Z,87.6
2017-11-07T10:15:01.950Z,81.9
2017-11-07T10:16:03.562Z,81.6
2017-11-07T10:17:05.182Z,75.0
2017-11-07T10:18:06.808Z,73.2
2017-11-07T10:19:08.422Z,70.2
2017-11-07T10:20:10.052Z,70.9
2017-11-07T10:21:11.660Z,67.6
2017-11-07T10:22:13.275Z,67.8
2017-11-07T10:23:14.898Z,64.8
2017-11-07T10:24:16.513Z,65.0
2017-11-07T10:25:18.129Z,62.8
2017-11-07T10:26:19.749Z,61.7
2017-11-07T10:27:21.363Z,60.8
2017-11-07T10:28:22.976Z,60.0
2017-11-07T10:29:24.600Z,59.9
2017-11-07T10:30:26.221Z,59.7
2017-11-07T10:31:27.835Z,60.6
2017-11-07T10:32:29.460Z,61.9
2017-11-07T10:33:31.076Z,61.9
2017-11-07T10:34:32.706Z,61.7
2017-11-07T10:35:34.312Z,62.3
2017-11-07T10:36:35.930Z,65.1
2017-11-07T10:37:37.545Z,66.1
2017-11-07T10:38:39.157Z,67.6
2017-11-07T10:39:40.777Z,69.2
2017-11-07T10:40:42.392Z,70.2
2017-11-07T10:41:44.012Z,70.3
2017-11-07T10:42:45.628Z,73.1
2017-11-07T10:43:47.237Z,74.6
2017-11-07T10:44:48.860Z,76.9
2017-11-07T10:45:50.480Z,78.6
2017-11-07T10:46:52.094Z,82.3
2017-11-07T10:47:53.715Z,86.3
2017-11-07T10:48:55.326Z,87.2
2017-11-07T10:49:56.950Z,93.6
2017-11-07T10:50:58.559Z,92.2
2017-11-07T10:52:00.183Z,96.5
2017-11-07T10:53:01.795Z,96.0
2017-11-07T10:54:03.414Z,98.0
2017-11-07T10:55:05.036Z,100.0
2017-11-07T10:56:06.655Z,100.0
2017-11-07T10:57:08.266Z,99.0
2017-11-07T10:58:09.881Z,96.1
2017-11-07T10:59:11.496Z,85.6
2017-11-07T11:00:13.118Z,85.6
2017-11-07T11:01:14.736Z,82.4
2017-11-07T11:02:16.357Z,79.7
2017-11-07T11:03:17.976Z,77.0
2017-11-07T11:04:19.589Z,70.6
2017-11-07T11:05:21.205Z,70.2
2017-11-07T11:06:22.826Z,67.5
2017-11-07T11:07:24.444Z,63.9
2017-11-07T11:08:26.061Z,63.5
2017-11-07T11:09:27.678Z,62.4
2017-11-07T11:10:29.303Z,62.4
2017-11-07T11:11:30.913Z,60.1
2017-11-07T11:12:32.533Z,57.5
2017-11-07T11:13:34.148Z,57.3
2017-11-07T11:14:35.769Z,58.5
2017-11-07T11:15:37.384Z,58.6
2017-11-07T11:16:39.002Z,59.0
2017-11-07T11:17:40.619Z,58.2
2017-11-07T11:18:42.244Z,59.7
2017-11-07T11:19:43.864Z,58.9
2017-11-07T11:20:45.476Z,58.8
2017-11-07T11:21:47.094Z,59.4
2017-11-07T11:22:48.718Z,60.5
2017-11-07T11:23:50.341Z,59.6
2017-11-07T11:24:51.953Z,60.6
2017-11-07T11:25:53.580Z,59.5
2017-11-07T11:26:55.191Z,59.7
2017-11-07T11:27:56.810Z,58.6
2017-11-07T11:28:58.434Z,58.8
2017-11-07T11:30:00.050Z,58.3
2017-11-07T11:31:01.670Z,57.2
2017-11-07T11:32:03.291Z,59.1
2017-11-07T11:33:04.910Z,59.1
2017-11-07T11:34:06.528Z,59.2
2017-11-07T11:35:08.142Z,61.0
2017-11-07T11:36:09.765Z,60.5
2017-11-07T11:37:11.379Z,61.0
2017-11-07T11:38:13.003Z,61.6
2017-11-07T11:39:14.614Z,60.9
2017-11-07T11:40:16.236Z,61.2
2017-11-07T11:41:17.849Z,59.4
2017-11-07T11:42:19.469Z,59.0
2017-11-07T11:43:21.086Z,56.3
2017-11-07T11:44:22.708Z,57.1
2017-11-07T11:45:24.321Z,57.3
2017-11-07T11:46:25.942Z,57.7
2017-11-07T11:47:27.560Z,57.6
2017-11-07T11:48:29.176Z,56.4
2017-11-07T11:49:30.791Z,58.4
2017-11-07T11:50:32.405Z,59.6
2017-11-07T11:51:34.027Z,58.6
2017-11-07T11:52:35.643Z,58.3
2017-11-07T11:53:37.263Z,58.5
2017-11-07T11:54:38.880Z,59.2
2017-11-07T11:55:40.490Z,58.2
2017-11-07T11:56:42.107Z,59.7
2017-11-07T11:57:43.733Z,59.8
2017-11-07T11:58:45.347Z,61.0
2017-11-07T11:59:46.963Z,61.3
2017-11-07T12:00:48.582Z,63.5
2017-11-07T12:01:50.201Z,62.4
2017-11-07T12:02:51.817Z,63.0
2017-11-07T12:03:53.430Z,63.8
2017-11-07T12:04:55.054Z,62.9
2017-11-07T12:05:56.667Z,62.9
2017-11-07T12:06:58.291Z,62.1
2017-11-07T12:07:59.903Z,61.9
2017-11-07T12:09:01.522Z,62.1
2017-11-07T12:10:03.134Z,61.6
2017-11-07T12:11:04.747Z,61.3
2017-11-07T12:12:06.371Z,62.4
2017-11-07T12:13:07.985Z,62.8
2017-11-07T12:14:09.598Z,62.8
2017-11-07T12:15:11.209Z,63.5
2017-11-07T12:16:12.826Z,64.0
2017-11-07T12:17:14.439Z,63.5
2017-11-07T12:18:16.052Z,63.3
2017-11-07T12:19:17.665Z,63.2
2017-11-07T12:20:20.092Z,62.7
2017-11-07T12:21:21.702Z,64.0
2017-11-07T12:22:23.320Z,64.0
2017-11-07T12:23:24.926Z,64.4
2017-11-07T12:24:26.540Z,64.1
2017-11-07T12:25:28.152Z,62.9
2017-11-07T12:26:29.770Z,64.2
2017-11-07T12:27:31.385Z,65.0
2017-11-07T12:28:33.005Z,67.2
2017-11-07T12:29:34.615Z,66.4
2017-11-07T12:30:36.231Z,67.1
2017-11-07T12:31:37.844Z,66.9
2017-11-07T12:32:39.465Z,67.2
2017-11-07T12:33:41.081Z,66.0
2017-11-07T12:34:42.699Z,68.7
2017-11-07T12:35:44.320Z,70.2
2017-11-07T12:36:45.935Z,70.8
2017-11-07T12:37:47.547Z,72.7
2017-11-07T12:38:49.156Z,75.6
2017-11-07T12:39:50.774Z,77.4
2017-11-07T12:40:52.392Z,77.9
2017-11-07T12:41:54.011Z,78.5
2017-11-07T12:42:55.622Z,84.1
2017-11-07T12:43:57.237Z,90.6
2017-11-07T12:44:58.847Z,92.9
2017-11-07T12:46:00.466Z,98.5
2017-11-07T12:47:02.077Z,100.0
2017-11-07T12:48:03.694Z,100.0
2017-11-07T12:49:05.305Z,100.0
2017-11-07T12:50:06.921Z,100.0
2017-11-07T12:51:08.537Z,100.0
2017-11-07T12:52:10.153Z,100.0
2017-11-07T12:53:11.768Z,100.0
2017-11-07T12:54:13.393Z,100.0
2017-11-07T12:55:15.021Z,100.0
2017-11-07T12:56:16.631Z,100.0
2017-11-07T12:57:18.250Z,100.0
2017-11-07T12:58:19.865Z,100.0
2017-11-07T12:59:21.474Z,100.0
2017-11-07T13:00:23.100Z,100.0
2017-11-07T13:01:24.703Z,100.0
2017-11-07T13:02:26.324Z,100.0
2017-11-07T13:03:27.934Z,100.0
2017-11-07T13:04:29.561Z,100.0
2017-11-07T13:05:31.167Z,100.0
2017-11-07T13:06:32.783Z,100.0
2017-11-07T13:07:34.401Z,100.0
2017-11-07T13:08:36.015Z,100.0
2017-11-07T13:09:37.627Z,100.0
2017-11-07T13:10:39.248Z,100.0
2017-11-07T13:11:40.862Z,100.0
2017-11-07T13:12:42.483Z,100.0
2017-11-07T13:13:44.089Z,100.0
2017-11-07T13:14:45.703Z,100.0
2017-11-07T13:15:47.322Z,100.0
2017-11-07T13:16:48.941Z,100.0
2017-11-07T13:17:50.552Z,100.0
2017-11-07T13:18:52.165Z,100.0
2017-11-07T13:19:53.787Z,100.0
2017-11-07T13:20:55.402Z,100.0
2017-11-07T13:21:57.012Z,100.0
2017-11-07T13:22:58.625Z,100.0
2017-11-07T13:24:00.238Z,100.0
2017-11-07T13:25:01.854Z,100.0
2017-11-07T13:26:03.474Z,100.0
2017-11-07T13:27:05.085Z,100.0
2017-11-07T13:28:06.702Z,100.0
2017-11-07T13:29:08.313Z,100.0
2017-11-07T13:30:09.926Z,100.0
2017-11-07T13:31:11.540Z,100.0
2017-11-07T13:32:13.158Z,100.0
2017-11-07T13:33:14.783Z,100.0
2017-11-07T13:34:16.387Z,100.0
2017-11-07T13:35:17.998Z,100.0
2017-11-07T13:36:19.616Z,100.0
2017-11-07T13:37:21.236Z,100.0
2017-11-07T13:38:22.849Z,100.0
2017-11-07T13:39:24.463Z,100.0
2017-11-07T13:40:26.080Z,100.0
2017-11-07T13:41:27.697Z,100.0
2017-11-07T13:42:29.305Z,100.0
2017-11-07T13:43:30.920Z,100.0
2017-11-07T13:44:32.536Z,100.0
2017-11-07T13:45:34.155Z,100.0
2017-11-07T13:46:35.765Z,100.0
2017-11-07T13:47:37.378Z,100.0
2017-11-07T13:48:38.994Z,100.0
2017-11-07T13:49:40.603Z,100.0
2017-11-07T13:50:42.218Z,100.0